createdAt,value
2023-03-03T00:01:15.478Z,29.35
2023-03-03T00:03:42.117Z,30.80
2023-03-03T00:06:11.775Z,32.80
2023-03-03T00:08:39.288Z,32.45
2023-03-03T00:11:07.852Z,30.80
2023-03-03T00:13:46.131Z,30.33
2023-03-03T00:16:17.371Z,31.52
2023-03-03T00:18:47.200Z,31.95
2023-03-03T00:21:29.261Z,29.55
2023-03-03T00:24:16.855Z,31.75
2023-03-03T00:26:57.231Z,34.20
2023-03-03T00:29:31.478Z,30.27
2023-03-03T00:32:22.748Z,32.60
2023-03-03T00:34:50.693Z,31.05
2023-03-03T00:37:29.264Z,31.05
2023-03-03T00:40:22.116Z,30.00
2023-03-03T00:42:56.977Z,30.70
2023-03-03T00:45:23.383Z,30.50
2023-03-03T00:47:49.925Z,30.05
2023-03-03T00:50:34.346Z,31.20
2023-03-03T00:53:17.172Z,31.13
2023-03-03T00:55:44.149Z,31.33
2023-03-03T00:58:10.863Z,31.20
2023-03-03T01:00:38.530Z,30.55
2023-03-03T01:03:17.875Z,33.33
2023-03-03T01:05:44.766Z,32.00
2023-03-03T01:08:11.772Z,30.65
2023-03-03T01:10:53.163Z,32.95
2023-03-03T01:13:27.065Z,32.90
2023-03-03T01:15:54.349Z,31.23
2023-03-03T01:18:20.868Z,32.20
2023-03-03T01:20:47.456Z,32.47
2023-03-03T01:23:13.997Z,32.50
2023-03-03T01:25:40.520Z,31.63
2023-03-03T01:28:07.716Z,31.75
2023-03-03T01:30:34.245Z,31.45
2023-03-03T01:33:00.901Z,32.33
2023-03-03T01:35:27.470Z,31.95
2023-03-03T01:37:54.016Z,32.50
2023-03-03T01:40:26.361Z,32.90
2023-03-03T01:42:53.076Z,31.25
2023-03-03T01:45:23.367Z,31.60
2023-03-03T01:47:49.796Z,32.83
2023-03-03T01:50:28.130Z,30.17
2023-03-03T01:52:55.663Z,32.70
2023-03-03T01:55:30.892Z,33.63
2023-03-03T01:58:14.214Z,32.42
2023-03-03T02:00:43.996Z,33.08
2023-03-03T02:03:11.004Z,31.58
2023-03-03T02:05:39.332Z,32.47
2023-03-03T02:08:08.810Z,31.10
2023-03-03T02:10:35.864Z,31.75
2023-03-03T02:13:02.313Z,31.70
2023-03-03T02:15:32.357Z,30.90
2023-03-03T02:18:09.374Z,30.70
2023-03-03T02:20:51.001Z,29.80
2023-03-03T02:23:39.660Z,32.65
2023-03-03T02:26:13.177Z,31.80
2023-03-03T02:31:13.568Z,30.10
2023-03-03T02:33:42.729Z,31.42
2023-03-03T02:36:13.804Z,32.47
2023-03-03T02:38:43.689Z,31.95
2023-03-03T02:41:26.434Z,30.80
2023-03-03T02:44:02.000Z,30.65
2023-03-03T02:46:32.602Z,32.22
2023-03-03T02:48:59.082Z,31.33
2023-03-03T02:51:25.566Z,32.85
2023-03-03T02:53:52.307Z,30.88
2023-03-03T02:56:18.888Z,32.45
2023-03-03T02:58:45.399Z,33.63
2023-03-03T03:01:12.146Z,34.28
2023-03-03T03:03:38.990Z,31.35
2023-03-03T03:06:05.837Z,32.60
2023-03-03T03:08:32.475Z,30.83
2023-03-03T03:10:59.046Z,31.70
2023-03-03T03:13:26.045Z,30.95
2023-03-03T03:15:52.621Z,31.85
2023-03-03T03:18:19.169Z,31.05
2023-03-03T03:20:47.515Z,32.00
2023-03-03T03:23:15.474Z,31.55
2023-03-03T03:25:47.990Z,32.15
2023-03-03T03:28:17.378Z,24.55
2023-03-03T03:30:45.699Z,31.58
2023-03-03T03:33:12.949Z,33.47
2023-03-03T03:35:45.440Z,31.48
2023-03-03T03:38:12.924Z,31.50
2023-03-03T03:40:40.290Z,31.88
2023-03-03T03:43:07.389Z,32.20
2023-03-03T03:45:34.205Z,33.08
2023-03-03T03:48:01.036Z,31.58
2023-03-03T03:50:27.596Z,33.67
2023-03-03T03:52:54.083Z,32.40
2023-03-03T03:55:20.576Z,32.10
2023-03-03T03:57:47.083Z,30.38
2023-03-03T04:00:14.278Z,31.17
2023-03-03T04:02:41.038Z,32.78
2023-03-03T04:05:08.127Z,33.50
2023-03-03T04:07:34.633Z,31.83
2023-03-03T04:10:01.307Z,31.23
2023-03-03T04:12:27.958Z,29.55
2023-03-03T04:14:54.499Z,33.88
2023-03-03T04:17:24.450Z,33.42
2023-03-03T04:19:53.543Z,32.35
2023-03-03T04:22:20.500Z,33.00
2023-03-03T04:24:48.624Z,31.38
2023-03-03T04:27:15.705Z,31.58
2023-03-03T04:29:42.539Z,32.92
2023-03-03T04:32:09.416Z,33.42
2023-03-03T04:34:35.924Z,32.40
2023-03-03T04:37:03.012Z,30.60
2023-03-03T04:39:29.573Z,32.75
2023-03-03T04:41:56.089Z,29.58
2023-03-03T04:44:22.604Z,32.50
2023-03-03T04:46:49.144Z,31.65
2023-03-03T04:49:15.648Z,32.60
2023-03-03T04:51:42.151Z,32.40
2023-03-03T04:54:08.609Z,32.47
2023-03-03T04:56:35.074Z,31.33
2023-03-03T04:59:01.721Z,32.47
2023-03-03T05:01:28.272Z,32.97
2023-03-03T05:03:54.737Z,33.70
2023-03-03T05:06:21.332Z,32.28
2023-03-03T05:08:47.909Z,34.15
2023-03-03T05:11:14.456Z,34.33
2023-03-03T05:13:41.057Z,33.03
2023-03-03T05:16:07.965Z,31.75
2023-03-03T05:18:34.521Z,34.60
2023-03-03T05:21:01.057Z,32.95
2023-03-03T05:23:27.716Z,31.77
2023-03-03T05:25:54.271Z,33.40
2023-03-03T05:28:20.974Z,33.10
2023-03-03T05:30:47.471Z,32.90
2023-03-03T05:33:16.098Z,32.30
2023-03-03T05:35:43.334Z,34.83
2023-03-03T05:38:10.392Z,34.13
2023-03-03T05:40:37.839Z,32.70
2023-03-03T05:43:04.600Z,35.72
2023-03-03T05:45:31.142Z,34.42
2023-03-03T05:47:57.659Z,34.38
2023-03-03T05:50:24.288Z,33.65
2023-03-03T05:52:51.943Z,35.45
2023-03-03T05:55:19.491Z,33.50
2023-03-03T05:57:46.193Z,35.00
2023-03-03T06:00:13.797Z,32.45
2023-03-03T06:02:41.221Z,33.90
2023-03-03T06:05:09.077Z,36.35
2023-03-03T06:07:35.995Z,35.70
2023-03-03T06:10:02.618Z,35.95
2023-03-03T06:12:29.149Z,35.35
2023-03-03T06:14:55.636Z,34.00
2023-03-03T06:17:22.177Z,35.78
2023-03-03T06:19:48.765Z,34.13
2023-03-03T06:22:15.459Z,32.88
2023-03-03T06:24:42.054Z,34.95
2023-03-03T06:27:09.682Z,36.83
2023-03-03T06:29:36.192Z,33.55
2023-03-03T06:32:03.003Z,32.58
2023-03-03T06:34:29.627Z,33.13
2023-03-03T06:36:57.091Z,35.28
2023-03-03T06:39:23.571Z,35.05
2023-03-03T06:41:50.110Z,34.85
2023-03-03T06:44:16.944Z,36.05
2023-03-03T06:46:43.666Z,32.13
2023-03-03T06:49:10.191Z,33.88
2023-03-03T06:51:39.887Z,34.67
2023-03-03T06:54:18.307Z,34.40
2023-03-03T06:56:46.168Z,31.85
2023-03-03T06:59:16.905Z,34.17
2023-03-03T07:01:46.747Z,34.17
2023-03-03T07:04:30.829Z,34.08
2023-03-03T07:06:59.321Z,34.05
2023-03-03T07:09:28.288Z,34.80
2023-03-03T07:12:06.328Z,33.08
2023-03-03T07:14:42.386Z,34.40
2023-03-03T07:17:15.447Z,33.20
2023-03-03T07:19:43.655Z,36.53
2023-03-03T07:22:19.764Z,33.20
2023-03-03T07:24:52.842Z,34.88
2023-03-03T07:27:19.564Z,32.55
2023-03-03T07:29:48.278Z,34.45
2023-03-03T07:32:44.185Z,33.80
2023-03-03T07:35:37.724Z,35.25
2023-03-03T07:38:32.300Z,34.78
2023-03-03T07:41:01.653Z,33.72
2023-03-03T07:43:39.931Z,34.97
2023-03-03T07:46:42.981Z,33.90
2023-03-03T07:49:22.223Z,33.30
2023-03-03T07:51:57.537Z,34.80
2023-03-03T07:54:29.898Z,32.95
2023-03-03T07:57:02.190Z,35.47
2023-03-03T07:59:28.679Z,36.30
2023-03-03T08:01:58.764Z,33.65
2023-03-03T08:04:50.959Z,34.80
2023-03-03T08:07:19.433Z,35.80
2023-03-03T08:09:52.072Z,37.03
2023-03-03T08:12:42.165Z,36.57
2023-03-03T08:15:22.793Z,36.28
2023-03-03T08:17:51.386Z,36.08
2023-03-03T08:20:41.949Z,38.58
2023-03-03T08:23:08.491Z,37.15
2023-03-03T08:25:34.934Z,35.58
2023-03-03T08:28:01.492Z,37.75
2023-03-03T08:30:28.015Z,36.72
2023-03-03T08:32:54.547Z,37.80
2023-03-03T08:35:21.081Z,36.05
2023-03-03T08:37:47.581Z,37.92
2023-03-03T08:40:14.144Z,36.58
2023-03-03T08:42:40.749Z,36.15
2023-03-03T08:45:07.499Z,35.28
2023-03-03T08:47:34.066Z,36.08
2023-03-03T08:50:00.590Z,37.38
2023-03-03T08:52:27.103Z,36.25
2023-03-03T08:54:54.250Z,36.70
2023-03-03T08:57:20.717Z,35.83
2023-03-03T08:59:47.851Z,36.00
2023-03-03T09:02:14.366Z,37.92
2023-03-03T09:04:43.978Z,37.67
2023-03-03T09:07:11.286Z,35.83
2023-03-03T09:09:37.757Z,37.33
2023-03-03T09:12:33.333Z,35.95
2023-03-03T09:15:15.251Z,35.38
2023-03-03T09:17:42.159Z,37.28
2023-03-03T09:20:33.751Z,35.78
2023-03-03T09:23:25.425Z,36.75
2023-03-03T09:25:52.788Z,36.25
2023-03-03T09:28:30.676Z,36.72
2023-03-03T09:30:59.767Z,34.47
2023-03-03T09:33:29.650Z,35.95
2023-03-03T09:36:24.673Z,34.60
2023-03-03T09:38:51.942Z,35.90
2023-03-03T09:41:40.306Z,33.28
2023-03-03T09:44:06.966Z,34.90
2023-03-03T09:46:51.774Z,33.67
2023-03-03T09:49:26.964Z,35.78
2023-03-03T09:52:35.382Z,35.08
2023-03-03T09:55:52.733Z,35.60
2023-03-03T09:58:45.632Z,31.23
2023-03-03T10:01:24.340Z,33.97
2023-03-03T10:04:02.543Z,32.28
2023-03-03T10:06:46.142Z,33.28
2023-03-03T10:09:44.919Z,31.10
2023-03-03T10:12:28.174Z,31.98
2023-03-03T10:15:30.032Z,34.33
2023-03-03T10:18:24.523Z,33.13
2023-03-03T10:20:59.744Z,33.33
2023-03-03T10:23:59.204Z,33.25
2023-03-03T10:27:13.531Z,34.20
2023-03-03T10:29:46.506Z,32.83
2023-03-03T10:32:31.537Z,32.42
2023-03-03T10:35:11.969Z,31.30
2023-03-03T10:38:06.181Z,31.48
2023-03-03T10:40:47.009Z,30.90
2023-03-03T10:43:26.130Z,32.88
2023-03-03T10:46:03.857Z,34.67
2023-03-03T10:49:02.300Z,30.27
2023-03-03T10:51:38.139Z,33.22
2023-03-03T10:54:34.718Z,33.20
2023-03-03T10:57:14.794Z,34.85
2023-03-03T10:59:55.787Z,31.60
2023-03-03T11:03:00.717Z,30.90
2023-03-03T11:05:57.926Z,33.97
2023-03-03T11:08:35.057Z,32.55
2023-03-03T11:11:24.462Z,32.95
2023-03-03T11:14:13.508Z,32.60
2023-03-03T11:17:23.807Z,31.45
2023-03-03T11:20:16.256Z,32.90
2023-03-03T11:23:10.330Z,30.63
2023-03-03T11:26:01.056Z,30.80
2023-03-03T11:28:44.786Z,31.30
2023-03-03T11:34:44.887Z,30.00
2023-03-03T11:37:26.312Z,32.40
2023-03-03T11:39:57.010Z,32.92
2023-03-03T11:42:58.449Z,30.52
2023-03-03T11:45:39.958Z,31.25
2023-03-03T11:48:30.621Z,31.90
2023-03-03T11:51:41.573Z,31.20
2023-03-03T11:54:28.892Z,32.80
2023-03-03T11:57:15.264Z,31.75
2023-03-03T11:59:55.592Z,30.20
2023-03-03T12:02:26.420Z,31.77
2023-03-03T12:05:04.841Z,31.50
2023-03-03T12:07:43.593Z,30.88
2023-03-03T12:10:23.515Z,30.27
2023-03-03T12:12:58.600Z,31.30
2023-03-03T12:15:54.410Z,32.15
2023-03-03T12:18:33.004Z,33.15
2023-03-03T12:21:18.209Z,33.53
2023-03-03T12:23:57.883Z,33.88
2023-03-03T12:26:53.998Z,33.00
2023-03-03T12:29:58.206Z,32.15
2023-03-03T12:32:24.673Z,33.40
2023-03-03T12:35:16.260Z,32.85
2023-03-03T12:37:48.063Z,33.47
2023-03-03T12:40:20.491Z,33.35
2023-03-03T12:43:24.498Z,33.00
2023-03-03T12:48:43.520Z,32.50
2023-03-03T12:51:56.263Z,30.95
2023-03-03T12:54:29.290Z,32.63
2023-03-03T12:57:08.605Z,31.55
2023-03-03T13:00:10.904Z,33.88
2023-03-03T13:02:43.503Z,32.92
2023-03-03T13:05:45.833Z,33.95
2023-03-03T13:08:56.144Z,30.42
2023-03-03T13:11:44.411Z,31.20
2023-03-03T13:14:34.969Z,33.45
2023-03-03T13:17:27.894Z,32.13
2023-03-03T13:20:00.998Z,33.85
2023-03-03T13:23:06.647Z,33.70
2023-03-03T13:25:46.323Z,31.65
2023-03-03T13:28:56.867Z,32.63
2023-03-03T13:31:32.121Z,32.92
2023-03-03T13:34:00.358Z,33.50
2023-03-03T13:36:42.162Z,31.92
2023-03-03T13:39:27.582Z,31.88
2023-03-03T13:42:04.524Z,30.88
2023-03-03T13:44:40.140Z,32.33
2023-03-03T13:47:32.698Z,31.98
2023-03-03T13:50:25.139Z,32.90
2023-03-03T13:52:57.375Z,31.65
2023-03-03T13:55:44.958Z,32.38
2023-03-03T13:58:25.331Z,30.95
2023-03-03T14:00:58.964Z,31.67
2023-03-03T14:04:13.373Z,32.45
2023-03-03T14:09:10.916Z,30.20
2023-03-03T14:12:00.734Z,31.23
2023-03-03T14:14:53.020Z,31.65
2023-03-03T14:17:25.206Z,31.25
2023-03-03T14:20:13.707Z,30.63
2023-03-03T14:23:18.535Z,30.55
2023-03-03T14:25:57.284Z,32.20
2023-03-03T14:28:26.822Z,32.50
2023-03-03T14:30:57.329Z,32.88
2023-03-03T14:33:30.829Z,31.13
2023-03-03T14:35:57.497Z,31.88
2023-03-03T14:38:36.535Z,30.90
2023-03-03T14:41:12.147Z,32.38
2023-03-03T14:43:41.346Z,31.05
2023-03-03T14:46:29.304Z,31.20
2023-03-03T14:49:06.027Z,32.72
2023-03-03T14:51:46.511Z,32.40
2023-03-03T14:54:28.308Z,31.17
2023-03-03T14:57:20.243Z,31.83
2023-03-03T15:00:13.241Z,31.15
2023-03-03T15:02:52.435Z,31.57
2023-03-03T15:05:25.358Z,33.17
2023-03-03T15:07:55.277Z,33.53
2023-03-03T15:10:31.206Z,33.40
2023-03-03T15:12:57.786Z,32.20
2023-03-03T15:15:27.356Z,33.10
2023-03-03T15:18:05.239Z,32.75
2023-03-03T15:20:56.171Z,32.30
2023-03-03T15:24:00.109Z,32.22
2023-03-03T15:26:41.016Z,33.25
2023-03-03T15:29:28.099Z,32.20
2023-03-03T15:32:16.013Z,32.50
2023-03-03T15:34:59.980Z,33.15
2023-03-03T15:37:39.434Z,34.75
2023-03-03T15:40:39.147Z,32.92
2023-03-03T15:43:17.615Z,32.30
2023-03-03T15:46:02.957Z,32.83
2023-03-03T15:48:35.889Z,31.70
2023-03-03T15:51:21.198Z,32.17
2023-03-03T15:54:20.878Z,31.95
2023-03-03T15:56:58.205Z,33.60
2023-03-03T16:00:02.611Z,32.17
2023-03-03T16:05:12.672Z,31.42
2023-03-03T16:07:53.674Z,32.78
2023-03-03T16:11:03.288Z,33.22
2023-03-03T16:13:48.488Z,32.55
2023-03-03T16:16:56.534Z,31.98
2023-03-03T16:19:46.051Z,30.45
2023-03-03T16:22:27.398Z,33.58
2023-03-03T16:25:23.242Z,33.83
2023-03-03T16:27:54.719Z,34.33
2023-03-03T16:30:46.008Z,34.00
2023-03-03T16:33:44.554Z,32.58
2023-03-03T16:36:25.626Z,33.80
2023-03-03T16:39:32.600Z,33.78
2023-03-03T16:42:05.360Z,32.58
2023-03-03T16:44:53.496Z,34.83
2023-03-03T16:47:51.896Z,33.42
2023-03-03T16:50:24.258Z,33.15
2023-03-03T16:53:06.263Z,33.67
2023-03-03T16:55:52.082Z,33.72
2023-03-03T16:58:24.666Z,33.38
2023-03-03T17:00:59.328Z,34.23
2023-03-03T17:03:53.482Z,34.47
2023-03-03T17:07:02.934Z,34.30
2023-03-03T17:09:51.910Z,31.77
2023-03-03T17:12:27.459Z,32.08
2023-03-03T17:15:23.544Z,35.08
2023-03-03T17:18:01.606Z,33.30
2023-03-03T17:20:37.025Z,32.72
2023-03-03T17:23:31.603Z,32.78
2023-03-03T17:26:16.456Z,34.10
2023-03-03T17:28:51.780Z,32.33
2023-03-03T17:31:30.398Z,31.77
2023-03-03T17:34:09.511Z,32.55
2023-03-03T17:36:50.145Z,32.60
2023-03-03T17:39:47.082Z,32.78
2023-03-03T17:42:38.381Z,33.08
2023-03-03T17:45:10.994Z,31.67
2023-03-03T17:47:43.229Z,32.60
2023-03-03T17:50:40.213Z,33.88
2023-03-03T17:53:18.174Z,32.42
2023-03-03T17:56:15.109Z,33.15
2023-03-03T17:59:23.993Z,34.20
2023-03-03T18:02:12.634Z,32.30
2023-03-03T18:05:05.858Z,32.38
2023-03-03T18:07:44.589Z,33.53
2023-03-03T18:10:29.184Z,32.70
2023-03-03T18:13:31.394Z,33.55
2023-03-03T18:16:26.582Z,33.03
2023-03-03T18:19:14.842Z,33.20
2023-03-03T18:22:02.357Z,34.50
2023-03-03T18:24:39.659Z,31.75
2023-03-03T18:27:24.331Z,32.05
2023-03-03T18:30:09.552Z,34.63
2023-03-03T18:33:01.946Z,38.80
2023-03-03T18:35:40.667Z,37.70
2023-03-03T18:38:16.403Z,36.03
2023-03-03T18:41:12.344Z,30.02
2023-03-03T18:43:44.841Z,31.25
2023-03-03T18:46:31.752Z,34.22
2023-03-03T18:49:05.818Z,33.85
2023-03-03T18:51:35.469Z,33.22
2023-03-03T18:54:07.151Z,33.80
2023-03-03T18:56:47.367Z,34.72
2023-03-03T18:59:36.915Z,34.65
2023-03-03T19:02:18.741Z,35.05
2023-03-03T19:04:56.553Z,34.63
2023-03-03T19:07:41.406Z,35.35
2023-03-03T19:10:19.887Z,33.72
2023-03-03T19:12:59.556Z,33.97
2023-03-03T19:15:33.600Z,34.47
2023-03-03T19:18:00.059Z,34.15
2023-03-03T19:20:38.148Z,36.20
2023-03-03T19:23:11.101Z,39.53
2023-03-03T19:25:38.033Z,36.38
2023-03-03T19:28:17.377Z,38.78
2023-03-03T19:31:06.294Z,38.13
2023-03-03T19:33:50.933Z,38.15
2023-03-03T19:36:52.523Z,36.75
2023-03-03T19:39:56.192Z,33.40
2023-03-03T19:42:47.457Z,36.20
2023-03-03T19:45:27.311Z,36.45
2023-03-03T19:48:12.763Z,34.13
2023-03-03T19:50:51.365Z,36.35
2023-03-03T19:53:46.871Z,33.83
2023-03-03T19:56:38.138Z,35.42
2023-03-03T19:59:22.791Z,35.35
2023-03-03T20:02:13.584Z,34.97
2023-03-03T20:04:55.305Z,34.95
2023-03-03T20:07:49.569Z,34.88
2023-03-03T20:10:16.069Z,35.95
2023-03-03T20:13:06.717Z,35.53
2023-03-03T20:15:41.786Z,35.08
2023-03-03T20:18:22.440Z,35.97
2023-03-03T20:20:55.850Z,35.53
2023-03-03T20:26:29.119Z,34.92
2023-03-03T20:29:04.758Z,35.42
2023-03-03T20:31:44.189Z,35.17
2023-03-03T20:34:51.665Z,32.80
2023-03-03T20:37:24.171Z,35.25
2023-03-03T20:40:13.985Z,34.08
2023-03-03T20:42:59.313Z,35.78
2023-03-03T20:45:38.740Z,34.67
2023-03-03T20:48:31.727Z,34.60
2023-03-03T20:51:10.557Z,36.33
2023-03-03T20:54:04.698Z,34.45
2023-03-03T20:56:51.560Z,34.17
2023-03-03T20:59:42.202Z,35.15
2023-03-03T21:02:17.628Z,35.35
2023-03-03T21:04:44.241Z,35.35
2023-03-03T21:07:26.222Z,36.38
2023-03-03T21:10:20.204Z,35.78
2023-03-03T21:15:26.997Z,34.00
2023-03-03T21:17:55.029Z,32.35
2023-03-03T21:20:29.362Z,33.25
2023-03-03T21:22:57.342Z,34.25
2023-03-03T21:25:57.730Z,33.72
2023-03-03T21:28:32.610Z,35.50
2023-03-03T21:31:06.799Z,37.85
2023-03-03T21:33:56.545Z,34.35
2023-03-03T21:36:32.072Z,32.75
2023-03-03T21:38:58.922Z,34.53
2023-03-03T21:41:25.438Z,34.67
2023-03-03T21:43:53.678Z,34.42
2023-03-03T21:46:21.992Z,36.35
2023-03-03T21:48:49.552Z,33.45
2023-03-03T21:51:16.041Z,34.63
2023-03-03T21:53:44.159Z,33.28
2023-03-03T21:56:13.570Z,35.50
2023-03-03T21:58:43.370Z,34.92
2023-03-03T22:01:10.445Z,32.92
2023-03-03T22:03:37.087Z,34.63
2023-03-03T22:06:03.894Z,34.60
2023-03-03T22:08:30.409Z,34.28
2023-03-03T22:10:57.004Z,33.20
2023-03-03T22:13:25.940Z,34.85
2023-03-03T22:15:53.199Z,34.05
2023-03-03T22:18:20.211Z,33.67
2023-03-03T22:20:48.131Z,36.03
2023-03-03T22:23:15.376Z,33.67
2023-03-03T22:25:42.038Z,32.15
2023-03-03T22:28:08.684Z,32.40
2023-03-03T22:30:35.733Z,33.30
2023-03-03T22:33:02.459Z,32.72
2023-03-03T22:35:29.006Z,34.92
2023-03-03T22:37:55.501Z,33.33
2023-03-03T22:40:22.211Z,33.78
2023-03-03T22:42:48.751Z,33.03
2023-03-03T22:45:15.516Z,35.88
2023-03-03T22:47:42.015Z,35.80
2023-03-03T22:50:09.266Z,34.28
2023-03-03T22:52:35.796Z,36.58
2023-03-03T22:55:04.128Z,35.55
2023-03-03T22:57:31.276Z,32.97
2023-03-03T22:59:58.098Z,33.85
2023-03-03T23:02:24.615Z,34.83
2023-03-03T23:04:57.619Z,35.45
2023-03-03T23:07:26.300Z,32.63
2023-03-03T23:09:52.785Z,34.28
2023-03-03T23:12:19.405Z,34.38
2023-03-03T23:14:45.924Z,33.60
2023-03-03T23:17:12.444Z,32.65
2023-03-03T23:19:38.911Z,34.42
2023-03-03T23:22:05.414Z,34.83
2023-03-03T23:24:33.159Z,32.72
2023-03-03T23:27:00.693Z,32.13
2023-03-03T23:29:27.334Z,33.33
2023-03-03T23:31:53.830Z,31.75
2023-03-03T23:34:20.345Z,33.90
2023-03-03T23:36:46.895Z,33.22
2023-03-03T23:39:13.473Z,33.33
2023-03-03T23:41:39.930Z,33.72
2023-03-03T23:44:06.631Z,34.10
2023-03-03T23:46:33.200Z,33.13
2023-03-03T23:49:02.078Z,33.22
2023-03-03T23:51:28.567Z,32.13
2023-03-03T23:53:55.159Z,33.75
2023-03-03T23:56:21.774Z,32.10
2023-03-03T23:58:48.334Z,32.90
